sensor_id;sensor_type;location;lat;lon;timestamp;P1;durP1;ratioP1;P2;durP2;ratioP2
34902;SDS011;21114;44.840;0.214;2024-01-07T00:01:07;4.10;;;2.08;;
34902;SDS011;21114;44.840;0.214;2024-01-07T00:04:18;3.42;;;2.30;;
34902;SDS011;21114;44.840;0.214;2024-01-07T00:06:44;3.70;;;2.47;;
34902;SDS011;21114;44.840;0.214;2024-01-07T00:09:10;4.25;;;2.40;;
34902;SDS011;21114;44.840;0.214;2024-01-07T00:12:25;5.72;;;2.42;;
34902;SDS011;21114;44.840;0.214;2024-01-07T00:14:51;7.28;;;3.08;;
34902;SDS011;21114;44.840;0.214;2024-01-07T00:17:17;4.20;;;2.05;;
34902;SDS011;21114;44.840;0.214;2024-01-07T00:19:43;4.75;;;2.00;;
34902;SDS011;21114;44.840;0.214;2024-01-07T00:22:09;4.90;;;2.22;;
34902;SDS011;21114;44.840;0.214;2024-01-07T00:24:35;2.75;;;2.35;;
34902;SDS011;21114;44.840;0.214;2024-01-07T00:27:01;4.07;;;2.15;;
34902;SDS011;21114;44.840;0.214;2024-01-07T00:29:27;4.20;;;2.60;;
34902;SDS011;21114;44.840;0.214;2024-01-07T00:31:53;2.53;;;2.00;;
34902;SDS011;21114;44.840;0.214;2024-01-07T00:34:19;4.30;;;2.45;;
34902;SDS011;21114;44.840;0.214;2024-01-07T00:36:45;3.20;;;2.28;;
34902;SDS011;21114;44.840;0.214;2024-01-07T00:39:12;4.30;;;1.92;;
34902;SDS011;21114;44.840;0.214;2024-01-07T00:41:38;3.75;;;2.88;;
34902;SDS011;21114;44.840;0.214;2024-01-07T00:44:04;6.60;;;2.25;;
34902;SDS011;21114;44.840;0.214;2024-01-07T00:46:30;4.57;;;2.65;;
34902;SDS011;21114;44.840;0.214;2024-01-07T00:48:56;3.58;;;3.28;;
34902;SDS011;21114;44.840;0.214;2024-01-07T00:51:22;4.65;;;2.25;;
34902;SDS011;21114;44.840;0.214;2024-01-07T00:53:48;4.55;;;2.10;;
34902;SDS011;21114;44.840;0.214;2024-01-07T00:56:14;5.40;;;2.30;;
34902;SDS011;21114;44.840;0.214;2024-01-07T00:58:40;4.35;;;2.72;;
34902;SDS011;21114;44.840;0.214;2024-01-07T01:01:06;7.30;;;3.50;;
34902;SDS011;21114;44.840;0.214;2024-01-07T01:03:32;3.58;;;2.22;;
34902;SDS011;21114;44.840;0.214;2024-01-07T01:05:58;6.72;;;4.07;;
34902;SDS011;21114;44.840;0.214;2024-01-07T01:08:24;5.25;;;3.10;;
34902;SDS011;21114;44.840;0.214;2024-01-07T01:10:50;3.90;;;3.38;;
34902;SDS011;21114;44.840;0.214;2024-01-07T01:13:16;3.90;;;2.67;;
34902;SDS011;21114;44.840;0.214;2024-01-07T01:15:42;7.50;;;4.28;;
34902;SDS011;21114;44.840;0.214;2024-01-07T01:18:08;4.15;;;3.00;;
34902;SDS011;21114;44.840;0.214;2024-01-07T01:20:34;4.22;;;3.03;;
34902;SDS011;21114;44.840;0.214;2024-01-07T01:23:00;5.78;;;2.70;;
34902;SDS011;21114;44.840;0.214;2024-01-07T01:25:26;6.03;;;3.40;;
34902;SDS011;21114;44.840;0.214;2024-01-07T01:27:54;7.78;;;2.83;;
34902;SDS011;21114;44.840;0.214;2024-01-07T01:30:20;4.43;;;3.50;;
34902;SDS011;21114;44.840;0.214;2024-01-07T01:32:46;5.03;;;2.83;;
34902;SDS011;21114;44.840;0.214;2024-01-07T01:35:13;7.32;;;4.82;;
34902;SDS011;21114;44.840;0.214;2024-01-07T01:37:39;5.43;;;3.25;;
34902;SDS011;21114;44.840;0.214;2024-01-07T01:40:05;4.05;;;3.00;;
34902;SDS011;21114;44.840;0.214;2024-01-07T01:42:31;5.38;;;2.45;;
34902;SDS011;21114;44.840;0.214;2024-01-07T01:44:57;2.92;;;2.63;;
34902;SDS011;21114;44.840;0.214;2024-01-07T01:47:26;3.55;;;2.28;;
34902;SDS011;21114;44.840;0.214;2024-01-07T01:49:52;3.17;;;2.60;;
34902;SDS011;21114;44.840;0.214;2024-01-07T01:52:19;8.02;;;2.65;;
34902;SDS011;21114;44.840;0.214;2024-01-07T01:54:45;2.72;;;2.35;;
34902;SDS011;21114;44.840;0.214;2024-01-07T01:57:15;3.00;;;2.42;;
34902;SDS011;21114;44.840;0.214;2024-01-07T02:00:31;3.80;;;2.55;;
34902;SDS011;21114;44.840;0.214;2024-01-07T02:02:57;3.60;;;3.03;;
34902;SDS011;21114;44.840;0.214;2024-01-07T02:05:23;5.75;;;3.85;;
34902;SDS011;21114;44.840;0.214;2024-01-07T02:07:49;4.72;;;2.50;;
34902;SDS011;21114;44.840;0.214;2024-01-07T02:10:17;4.10;;;3.00;;
34902;SDS011;21114;44.840;0.214;2024-01-07T02:12:43;3.53;;;2.33;;
34902;SDS011;21114;44.840;0.214;2024-01-07T02:15:09;3.17;;;2.58;;
34902;SDS011;21114;44.840;0.214;2024-01-07T02:17:35;3.38;;;2.75;;
34902;SDS011;21114;44.840;0.214;2024-01-07T02:20:01;8.07;;;4.35;;
34902;SDS011;21114;44.840;0.214;2024-01-07T02:22:27;20.08;;;9.82;;
34902;SDS011;21114;44.840;0.214;2024-01-07T02:24:53;4.90;;;3.47;;
34902;SDS011;21114;44.840;0.214;2024-01-07T02:27:19;5.68;;;3.78;;
34902;SDS011;21114;44.840;0.214;2024-01-07T02:29:45;5.47;;;2.95;;
34902;SDS011;21114;44.840;0.214;2024-01-07T02:32:12;3.75;;;2.45;;
34902;SDS011;21114;44.840;0.214;2024-01-07T02:34:38;4.00;;;3.70;;
34902;SDS011;21114;44.840;0.214;2024-01-07T02:37:04;3.05;;;2.42;;
34902;SDS011;21114;44.840;0.214;2024-01-07T02:39:30;3.90;;;2.85;;
34902;SDS011;21114;44.840;0.214;2024-01-07T02:41:56;2.40;;;1.95;;
34902;SDS011;21114;44.840;0.214;2024-01-07T02:44:22;3.80;;;2.90;;
34902;SDS011;21114;44.840;0.214;2024-01-07T02:46:48;1.98;;;1.80;;
34902;SDS011;21114;44.840;0.214;2024-01-07T02:49:15;3.30;;;1.83;;
34902;SDS011;21114;44.840;0.214;2024-01-07T02:51:41;9.00;;;2.35;;
34902;SDS011;21114;44.840;0.214;2024-01-07T02:54:07;3.67;;;2.03;;
34902;SDS011;21114;44.840;0.214;2024-01-07T02:56:33;2.80;;;1.95;;
34902;SDS011;21114;44.840;0.214;2024-01-07T02:59:00;2.78;;;1.95;;
34902;SDS011;21114;44.840;0.214;2024-01-07T03:01:26;3.90;;;2.55;;
34902;SDS011;21114;44.840;0.214;2024-01-07T03:03:52;4.13;;;2.42;;
34902;SDS011;21114;44.840;0.214;2024-01-07T03:06:18;2.95;;;2.42;;
34902;SDS011;21114;44.840;0.214;2024-01-07T03:08:44;2.42;;;1.90;;
34902;SDS011;21114;44.840;0.214;2024-01-07T03:11:10;3.30;;;2.80;;
34902;SDS011;21114;44.840;0.214;2024-01-07T03:13:36;4.30;;;2.20;;
34902;SDS011;21114;44.840;0.214;2024-01-07T03:16:02;3.25;;;2.40;;
34902;SDS011;21114;44.840;0.214;2024-01-07T03:18:29;4.75;;;2.25;;
34902;SDS011;21114;44.840;0.214;2024-01-07T03:20:55;5.25;;;2.83;;
34902;SDS011;21114;44.840;0.214;2024-01-07T03:23:21;2.72;;;1.80;;
34902;SDS011;21114;44.840;0.214;2024-01-07T03:25:47;3.38;;;2.20;;
34902;SDS011;21114;44.840;0.214;2024-01-07T03:28:13;2.67;;;2.42;;
34902;SDS011;21114;44.840;0.214;2024-01-07T03:30:39;2.40;;;2.20;;
34902;SDS011;21114;44.840;0.214;2024-01-07T03:33:05;3.22;;;2.83;;
34902;SDS011;21114;44.840;0.214;2024-01-07T03:35:31;3.88;;;2.30;;
34902;SDS011;21114;44.840;0.214;2024-01-07T03:37:57;3.15;;;2.30;;
34902;SDS011;21114;44.840;0.214;2024-01-07T03:40:23;4.90;;;3.45;;
34902;SDS011;21114;44.840;0.214;2024-01-07T03:42:49;4.07;;;2.78;;
34902;SDS011;21114;44.840;0.214;2024-01-07T03:45:15;4.07;;;2.60;;
34902;SDS011;21114;44.840;0.214;2024-01-07T03:47:41;5.57;;;2.97;;
34902;SDS011;21114;44.840;0.214;2024-01-07T03:50:07;5.97;;;3.00;;
34902;SDS011;21114;44.840;0.214;2024-01-07T03:52:33;4.18;;;2.55;;
34902;SDS011;21114;44.840;0.214;2024-01-07T03:55:00;5.97;;;3.72;;
34902;SDS011;21114;44.840;0.214;2024-01-07T03:57:26;5.88;;;3.35;;
34902;SDS011;21114;44.840;0.214;2024-01-07T03:59:52;4.85;;;2.88;;
34902;SDS011;21114;44.840;0.214;2024-01-07T04:02:18;4.45;;;2.45;;
34902;SDS011;21114;44.840;0.214;2024-01-07T04:04:44;3.42;;;2.70;;
34902;SDS011;21114;44.840;0.214;2024-01-07T04:07:10;3.63;;;2.53;;
34902;SDS011;21114;44.840;0.214;2024-01-07T04:09:36;6.60;;;2.70;;
34902;SDS011;21114;44.840;0.214;2024-01-07T04:12:03;4.45;;;2.85;;
34902;SDS011;21114;44.840;0.214;2024-01-07T04:14:29;4.15;;;2.65;;
34902;SDS011;21114;44.840;0.214;2024-01-07T04:16:58;4.53;;;2.78;;
34902;SDS011;21114;44.840;0.214;2024-01-07T04:19:24;5.78;;;2.72;;
34902;SDS011;21114;44.840;0.214;2024-01-07T04:21:50;4.88;;;2.90;;
34902;SDS011;21114;44.840;0.214;2024-01-07T04:24:16;2.40;;;2.10;;
34902;SDS011;21114;44.840;0.214;2024-01-07T04:26:42;3.90;;;2.90;;
34902;SDS011;21114;44.840;0.214;2024-01-07T04:29:08;4.45;;;2.88;;
34902;SDS011;21114;44.840;0.214;2024-01-07T04:31:34;5.50;;;3.50;;
34902;SDS011;21114;44.840;0.214;2024-01-07T04:34:00;3.42;;;2.42;;
34902;SDS011;21114;44.840;0.214;2024-01-07T04:36:26;4.63;;;2.72;;
34902;SDS011;21114;44.840;0.214;2024-01-07T04:38:52;3.95;;;2.67;;
34902;SDS011;21114;44.840;0.214;2024-01-07T04:41:18;4.82;;;3.00;;
34902;SDS011;21114;44.840;0.214;2024-01-07T04:43:44;3.83;;;2.90;;
34902;SDS011;21114;44.840;0.214;2024-01-07T04:46:11;4.57;;;3.13;;
34902;SDS011;21114;44.840;0.214;2024-01-07T04:48:37;3.10;;;2.60;;
34902;SDS011;21114;44.840;0.214;2024-01-07T04:51:03;8.25;;;3.33;;
34902;SDS011;21114;44.840;0.214;2024-01-07T04:53:29;3.63;;;3.33;;
34902;SDS011;21114;44.840;0.214;2024-01-07T04:55:55;4.75;;;3.40;;
34902;SDS011;21114;44.840;0.214;2024-01-07T04:58:21;6.05;;;3.58;;
34902;SDS011;21114;44.840;0.214;2024-01-07T05:00:48;3.90;;;3.03;;
34902;SDS011;21114;44.840;0.214;2024-01-07T05:03:14;4.45;;;2.95;;
34902;SDS011;21114;44.840;0.214;2024-01-07T05:05:40;5.90;;;2.97;;
34902;SDS011;21114;44.840;0.214;2024-01-07T05:08:06;5.00;;;3.03;;
34902;SDS011;21114;44.840;0.214;2024-01-07T05:10:32;4.93;;;3.00;;
34902;SDS011;21114;44.840;0.214;2024-01-07T05:12:58;4.10;;;2.85;;
34902;SDS011;21114;44.840;0.214;2024-01-07T05:15:29;7.75;;;4.35;;
34902;SDS011;21114;44.840;0.214;2024-01-07T05:17:56;5.18;;;3.30;;
34902;SDS011;21114;44.840;0.214;2024-01-07T05:20:22;6.18;;;3.13;;
34902;SDS011;21114;44.840;0.214;2024-01-07T05:22:48;6.82;;;3.08;;
34902;SDS011;21114;44.840;0.214;2024-01-07T05:25:14;5.43;;;3.45;;
34902;SDS011;21114;44.840;0.214;2024-01-07T05:27:40;5.43;;;3.33;;
34902;SDS011;21114;44.840;0.214;2024-01-07T05:30:06;4.13;;;3.10;;
34902;SDS011;21114;44.840;0.214;2024-01-07T05:32:32;5.47;;;3.35;;
34902;SDS011;21114;44.840;0.214;2024-01-07T05:34:59;6.57;;;3.95;;
34902;SDS011;21114;44.840;0.214;2024-01-07T05:37:25;4.20;;;3.55;;
34902;SDS011;21114;44.840;0.214;2024-01-07T05:39:51;4.38;;;2.88;;
34902;SDS011;21114;44.840;0.214;2024-01-07T05:42:17;6.60;;;2.63;;
34902;SDS011;21114;44.840;0.214;2024-01-07T05:44:44;5.15;;;3.40;;
34902;SDS011;21114;44.840;0.214;2024-01-07T05:47:10;3.83;;;2.58;;
34902;SDS011;21114;44.840;0.214;2024-01-07T05:49:36;6.38;;;3.75;;
34902;SDS011;21114;44.840;0.214;2024-01-07T05:52:02;3.67;;;2.95;;
34902;SDS011;21114;44.840;0.214;2024-01-07T05:54:28;7.43;;;3.75;;
34902;SDS011;21114;44.840;0.214;2024-01-07T05:56:54;4.97;;;3.15;;
34902;SDS011;21114;44.840;0.214;2024-01-07T05:59:20;4.20;;;3.00;;
34902;SDS011;21114;44.840;0.214;2024-01-07T06:01:46;3.75;;;3.25;;
34902;SDS011;21114;44.840;0.214;2024-01-07T06:04:12;4.80;;;3.47;;
34902;SDS011;21114;44.840;0.214;2024-01-07T06:06:38;8.57;;;3.70;;
34902;SDS011;21114;44.840;0.214;2024-01-07T06:09:04;3.53;;;2.67;;
34902;SDS011;21114;44.840;0.214;2024-01-07T06:11:30;8.50;;;3.38;;
34902;SDS011;21114;44.840;0.214;2024-01-07T06:13:56;3.40;;;3.00;;
34902;SDS011;21114;44.840;0.214;2024-01-07T06:16:22;4.80;;;3.30;;
34902;SDS011;21114;44.840;0.214;2024-01-07T06:18:48;5.28;;;3.45;;
34902;SDS011;21114;44.840;0.214;2024-01-07T06:21:14;4.07;;;2.97;;
34902;SDS011;21114;44.840;0.214;2024-01-07T06:23:40;4.03;;;3.20;;
34902;SDS011;21114;44.840;0.214;2024-01-07T06:26:06;4.05;;;2.97;;
34902;SDS011;21114;44.840;0.214;2024-01-07T06:28:32;5.78;;;4.03;;
34902;SDS011;21114;44.840;0.214;2024-01-07T06:30:58;4.32;;;3.30;;
34902;SDS011;21114;44.840;0.214;2024-01-07T06:33:25;6.07;;;4.00;;
34902;SDS011;21114;44.840;0.214;2024-01-07T06:35:51;5.35;;;4.20;;
34902;SDS011;21114;44.840;0.214;2024-01-07T06:38:17;7.32;;;5.55;;
34902;SDS011;21114;44.840;0.214;2024-01-07T06:40:43;5.22;;;3.83;;
34902;SDS011;21114;44.840;0.214;2024-01-07T06:43:09;20.52;;;5.15;;
34902;SDS011;21114;44.840;0.214;2024-01-07T06:45:35;6.18;;;3.95;;
34902;SDS011;21114;44.840;0.214;2024-01-07T06:48:01;15.02;;;11.40;;
34902;SDS011;21114;44.840;0.214;2024-01-07T06:50:27;39.35;;;25.38;;
34902;SDS011;21114;44.840;0.214;2024-01-07T06:52:53;12.38;;;7.57;;
34902;SDS011;21114;44.840;0.214;2024-01-07T06:55:19;12.73;;;8.98;;
34902;SDS011;21114;44.840;0.214;2024-01-07T06:57:45;4.90;;;4.40;;
34902;SDS011;21114;44.840;0.214;2024-01-07T07:00:11;5.18;;;3.78;;
34902;SDS011;21114;44.840;0.214;2024-01-07T07:02:38;8.85;;;4.35;;
34902;SDS011;21114;44.840;0.214;2024-01-07T07:05:04;6.43;;;4.57;;
34902;SDS011;21114;44.840;0.214;2024-01-07T07:07:30;7.95;;;5.30;;
34902;SDS011;21114;44.840;0.214;2024-01-07T07:09:56;6.38;;;5.28;;
34902;SDS011;21114;44.840;0.214;2024-01-07T07:12:22;6.25;;;5.65;;
34902;SDS011;21114;44.840;0.214;2024-01-07T07:14:48;6.40;;;4.43;;
34902;SDS011;21114;44.840;0.214;2024-01-07T07:17:14;7.00;;;4.10;;
34902;SDS011;21114;44.840;0.214;2024-01-07T07:19:40;6.95;;;4.93;;
34902;SDS011;21114;44.840;0.214;2024-01-07T07:22:06;5.40;;;4.53;;
34902;SDS011;21114;44.840;0.214;2024-01-07T07:24:32;5.75;;;4.35;;
34902;SDS011;21114;44.840;0.214;2024-01-07T07:26:58;5.90;;;4.32;;
34902;SDS011;21114;44.840;0.214;2024-01-07T07:29:24;4.72;;;3.95;;
34902;SDS011;21114;44.840;0.214;2024-01-07T07:31:50;7.28;;;4.70;;
34902;SDS011;21114;44.840;0.214;2024-01-07T07:34:17;5.22;;;4.30;;
34902;SDS011;21114;44.840;0.214;2024-01-07T07:36:43;7.38;;;5.22;;
34902;SDS011;21114;44.840;0.214;2024-01-07T07:39:10;8.57;;;4.82;;
34902;SDS011;21114;44.840;0.214;2024-01-07T07:41:36;5.88;;;5.13;;
34902;SDS011;21114;44.840;0.214;2024-01-07T07:44:02;6.88;;;4.43;;
34902;SDS011;21114;44.840;0.214;2024-01-07T07:46:28;7.30;;;5.72;;
34902;SDS011;21114;44.840;0.214;2024-01-07T07:48:54;6.72;;;4.65;;
34902;SDS011;21114;44.840;0.214;2024-01-07T07:51:20;7.13;;;6.20;;
34902;SDS011;21114;44.840;0.214;2024-01-07T07:53:46;7.35;;;5.38;;
34902;SDS011;21114;44.840;0.214;2024-01-07T07:56:12;8.23;;;5.80;;
34902;SDS011;21114;44.840;0.214;2024-01-07T07:58:38;7.75;;;5.72;;
34902;SDS011;21114;44.840;0.214;2024-01-07T08:01:04;7.13;;;4.88;;
34902;SDS011;21114;44.840;0.214;2024-01-07T08:03:31;10.23;;;4.78;;
34902;SDS011;21114;44.840;0.214;2024-01-07T08:05:57;5.47;;;4.65;;
34902;SDS011;21114;44.840;0.214;2024-01-07T08:08:23;7.10;;;5.07;;
34902;SDS011;21114;44.840;0.214;2024-01-07T08:10:49;6.18;;;4.32;;
34902;SDS011;21114;44.840;0.214;2024-01-07T08:13:16;6.15;;;4.55;;
34902;SDS011;21114;44.840;0.214;2024-01-07T08:15:42;5.05;;;4.55;;
34902;SDS011;21114;44.840;0.214;2024-01-07T08:18:08;8.13;;;4.38;;
34902;SDS011;21114;44.840;0.214;2024-01-07T08:20:34;6.68;;;5.28;;
34902;SDS011;21114;44.840;0.214;2024-01-07T08:23:00;7.10;;;4.45;;
34902;SDS011;21114;44.840;0.214;2024-01-07T08:25:26;6.53;;;5.60;;
34902;SDS011;21114;44.840;0.214;2024-01-07T08:27:52;6.93;;;4.85;;
34902;SDS011;21114;44.840;0.214;2024-01-07T08:30:18;6.28;;;5.28;;
34902;SDS011;21114;44.840;0.214;2024-01-07T08:32:44;8.02;;;5.50;;
34902;SDS011;21114;44.840;0.214;2024-01-07T08:35:10;7.63;;;5.22;;
34902;SDS011;21114;44.840;0.214;2024-01-07T08:37:37;5.88;;;5.00;;
34902;SDS011;21114;44.840;0.214;2024-01-07T08:40:03;5.95;;;5.15;;
34902;SDS011;21114;44.840;0.214;2024-01-07T08:42:29;9.20;;;6.40;;
34902;SDS011;21114;44.840;0.214;2024-01-07T08:44:55;7.50;;;4.50;;
34902;SDS011;21114;44.840;0.214;2024-01-07T08:47:21;6.28;;;5.30;;
34902;SDS011;21114;44.840;0.214;2024-01-07T08:49:47;7.85;;;4.95;;
34902;SDS011;21114;44.840;0.214;2024-01-07T08:52:14;6.18;;;4.75;;
34902;SDS011;21114;44.840;0.214;2024-01-07T08:54:40;7.45;;;5.00;;
34902;SDS011;21114;44.840;0.214;2024-01-07T08:57:06;6.47;;;4.68;;
34902;SDS011;21114;44.840;0.214;2024-01-07T08:59:33;6.80;;;4.68;;
34902;SDS011;21114;44.840;0.214;2024-01-07T09:02:00;8.65;;;5.10;;
34902;SDS011;21114;44.840;0.214;2024-01-07T09:04:26;9.23;;;4.85;;
34902;SDS011;21114;44.840;0.214;2024-01-07T09:06:52;6.60;;;5.30;;
34902;SDS011;21114;44.840;0.214;2024-01-07T09:09:18;6.88;;;5.20;;
34902;SDS011;21114;44.840;0.214;2024-01-07T09:11:44;5.85;;;4.32;;
34902;SDS011;21114;44.840;0.214;2024-01-07T09:14:10;4.68;;;3.55;;
34902;SDS011;21114;44.840;0.214;2024-01-07T09:16:36;8.68;;;4.13;;
34902;SDS011;21114;44.840;0.214;2024-01-07T09:19:03;6.32;;;4.65;;
34902;SDS011;21114;44.840;0.214;2024-01-07T09:21:29;6.05;;;5.25;;
34902;SDS011;21114;44.840;0.214;2024-01-07T09:23:55;6.53;;;4.80;;
34902;SDS011;21114;44.840;0.214;2024-01-07T09:26:21;8.65;;;6.50;;
34902;SDS011;21114;44.840;0.214;2024-01-07T09:28:47;9.75;;;5.05;;
34902;SDS011;21114;44.840;0.214;2024-01-07T09:31:13;6.35;;;5.10;;
34902;SDS011;21114;44.840;0.214;2024-01-07T09:33:40;10.55;;;5.60;;
34902;SDS011;21114;44.840;0.214;2024-01-07T09:36:06;6.32;;;5.15;;
34902;SDS011;21114;44.840;0.214;2024-01-07T09:38:33;5.85;;;5.15;;
34902;SDS011;21114;44.840;0.214;2024-01-07T09:40:59;5.97;;;5.13;;
34902;SDS011;21114;44.840;0.214;2024-01-07T09:43:25;6.38;;;5.28;;
34902;SDS011;21114;44.840;0.214;2024-01-07T09:45:51;6.68;;;5.22;;
34902;SDS011;21114;44.840;0.214;2024-01-07T09:49:07;7.68;;;4.30;;
34902;SDS011;21114;44.840;0.214;2024-01-07T09:51:35;6.15;;;4.55;;
34902;SDS011;21114;44.840;0.214;2024-01-07T09:54:51;5.82;;;4.30;;
34902;SDS011;21114;44.840;0.214;2024-01-07T09:58:06;4.88;;;3.58;;
34902;SDS011;21114;44.840;0.214;2024-01-07T10:00:32;4.70;;;3.72;;
34902;SDS011;21114;44.840;0.214;2024-01-07T10:03:47;5.22;;;3.75;;
34902;SDS011;21114;44.840;0.214;2024-01-07T10:06:13;5.82;;;3.55;;
34902;SDS011;21114;44.840;0.214;2024-01-07T10:08:39;5.03;;;4.13;;
34902;SDS011;21114;44.840;0.214;2024-01-07T10:11:05;3.53;;;3.00;;
34902;SDS011;21114;44.840;0.214;2024-01-07T10:13:34;4.80;;;3.47;;
34902;SDS011;21114;44.840;0.214;2024-01-07T10:16:00;4.05;;;3.20;;
34902;SDS011;21114;44.840;0.214;2024-01-07T10:18:27;5.88;;;2.90;;
34902;SDS011;21114;44.840;0.214;2024-01-07T10:21:42;10.35;;;6.47;;
34902;SDS011;21114;44.840;0.214;2024-01-07T10:24:09;4.60;;;3.60;;
34902;SDS011;21114;44.840;0.214;2024-01-07T10:26:44;6.40;;;3.83;;
34902;SDS011;21114;44.840;0.214;2024-01-07T10:29:10;4.45;;;3.13;;
34902;SDS011;21114;44.840;0.214;2024-01-07T10:31:38;4.30;;;3.53;;
34902;SDS011;21114;44.840;0.214;2024-01-07T10:34:54;4.95;;;3.28;;
34902;SDS011;21114;44.840;0.214;2024-01-07T10:38:12;7.30;;;4.65;;
34902;SDS011;21114;44.840;0.214;2024-01-07T10:40:38;4.70;;;3.17;;
34902;SDS011;21114;44.840;0.214;2024-01-07T10:43:55;7.25;;;3.20;;
34902;SDS011;21114;44.840;0.214;2024-01-07T10:46:21;4.45;;;3.03;;
34902;SDS011;21114;44.840;0.214;2024-01-07T10:48:54;7.70;;;3.72;;
34902;SDS011;21114;44.840;0.214;2024-01-07T10:52:09;4.35;;;3.20;;
34902;SDS011;21114;44.840;0.214;2024-01-07T10:54:36;4.82;;;4.05;;
34902;SDS011;21114;44.840;0.214;2024-01-07T10:57:13;9.48;;;4.07;;
34902;SDS011;21114;44.840;0.214;2024-01-07T11:00:27;4.03;;;3.47;;
34902;SDS011;21114;44.840;0.214;2024-01-07T11:13:08;6.35;;;4.13;;
34902;SDS011;21114;44.840;0.214;2024-01-07T11:19:04;4.45;;;4.03;;
34902;SDS011;21114;44.840;0.214;2024-01-07T11:21:30;4.60;;;3.38;;
34902;SDS011;21114;44.840;0.214;2024-01-07T11:23:56;4.80;;;3.22;;
34902;SDS011;21114;44.840;0.214;2024-01-07T11:26:22;5.85;;;4.63;;
34902;SDS011;21114;44.840;0.214;2024-01-07T11:32:06;7.70;;;3.88;;
34902;SDS011;21114;44.840;0.214;2024-01-07T11:34:50;5.50;;;4.07;;
34902;SDS011;21114;44.840;0.214;2024-01-07T11:38:04;3.53;;;3.05;;
34902;SDS011;21114;44.840;0.214;2024-01-07T11:40:30;8.80;;;3.50;;
34902;SDS011;21114;44.840;0.214;2024-01-07T11:42:56;5.10;;;4.13;;
34902;SDS011;21114;44.840;0.214;2024-01-07T11:45:23;5.25;;;3.85;;
34902;SDS011;21114;44.840;0.214;2024-01-07T11:47:49;4.20;;;2.97;;
34902;SDS011;21114;44.840;0.214;2024-01-07T11:50:15;6.40;;;3.22;;
34902;SDS011;21114;44.840;0.214;2024-01-07T11:52:41;5.78;;;4.13;;
34902;SDS011;21114;44.840;0.214;2024-01-07T11:55:56;5.25;;;3.30;;
34902;SDS011;21114;44.840;0.214;2024-01-07T11:58:22;3.63;;;3.05;;
34902;SDS011;21114;44.840;0.214;2024-01-07T12:00:48;7.50;;;4.47;;
34902;SDS011;21114;44.840;0.214;2024-01-07T12:03:15;5.72;;;4.22;;
34902;SDS011;21114;44.840;0.214;2024-01-07T12:05:41;3.97;;;2.78;;
34902;SDS011;21114;44.840;0.214;2024-01-07T12:08:07;4.60;;;2.83;;
34902;SDS011;21114;44.840;0.214;2024-01-07T12:10:33;6.80;;;3.85;;
34902;SDS011;21114;44.840;0.214;2024-01-07T12:12:59;8.10;;;5.93;;
34902;SDS011;21114;44.840;0.214;2024-01-07T12:15:25;8.32;;;4.35;;
34902;SDS011;21114;44.840;0.214;2024-01-07T12:17:55;5.70;;;2.95;;
34902;SDS011;21114;44.840;0.214;2024-01-07T12:21:10;4.53;;;3.75;;
34902;SDS011;21114;44.840;0.214;2024-01-07T12:23:36;3.67;;;3.08;;
34902;SDS011;21114;44.840;0.214;2024-01-07T12:26:12;4.18;;;2.60;;
34902;SDS011;21114;44.840;0.214;2024-01-07T12:29:26;4.65;;;2.60;;
34902;SDS011;21114;44.840;0.214;2024-01-07T12:31:52;5.53;;;3.38;;
34902;SDS011;21114;44.840;0.214;2024-01-07T12:34:43;4.70;;;2.65;;
34902;SDS011;21114;44.840;0.214;2024-01-07T12:37:12;2.22;;;2.03;;
34902;SDS011;21114;44.840;0.214;2024-01-07T12:40:27;3.90;;;2.28;;
34902;SDS011;21114;44.840;0.214;2024-01-07T12:42:53;3.53;;;2.22;;
34902;SDS011;21114;44.840;0.214;2024-01-07T12:45:19;3.38;;;2.58;;
34902;SDS011;21114;44.840;0.214;2024-01-07T12:47:45;4.15;;;2.67;;
34902;SDS011;21114;44.840;0.214;2024-01-07T12:50:12;3.00;;;1.92;;
34902;SDS011;21114;44.840;0.214;2024-01-07T12:53:27;2.75;;;1.48;;
34902;SDS011;21114;44.840;0.214;2024-01-07T12:55:53;2.42;;;1.65;;
34902;SDS011;21114;44.840;0.214;2024-01-07T12:58:19;6.28;;;4.50;;
34902;SDS011;21114;44.840;0.214;2024-01-07T13:00:46;6.15;;;3.33;;
34902;SDS011;21114;44.840;0.214;2024-01-07T13:03:12;2.22;;;1.42;;
34902;SDS011;21114;44.840;0.214;2024-01-07T13:05:42;4.28;;;2.00;;
34902;SDS011;21114;44.840;0.214;2024-01-07T13:08:57;3.08;;;2.15;;
34902;SDS011;21114;44.840;0.214;2024-01-07T13:11:23;2.80;;;1.45;;
34902;SDS011;21114;44.840;0.214;2024-01-07T13:13:49;2.55;;;1.50;;
34902;SDS011;21114;44.840;0.214;2024-01-07T13:16:15;2.60;;;1.65;;
34902;SDS011;21114;44.840;0.214;2024-01-07T13:18:43;6.47;;;1.85;;
34902;SDS011;21114;44.840;0.214;2024-01-07T13:21:10;4.22;;;2.92;;
34902;SDS011;21114;44.840;0.214;2024-01-07T13:23:36;2.83;;;1.58;;
34902;SDS011;21114;44.840;0.214;2024-01-07T13:26:02;3.78;;;1.95;;
34902;SDS011;21114;44.840;0.214;2024-01-07T13:28:31;5.93;;;2.25;;
34902;SDS011;21114;44.840;0.214;2024-01-07T13:30:57;2.45;;;1.42;;
34902;SDS011;21114;44.840;0.214;2024-01-07T13:33:23;3.63;;;1.40;;
34902;SDS011;21114;44.840;0.214;2024-01-07T13:35:49;2.38;;;1.27;;
34902;SDS011;21114;44.840;0.214;2024-01-07T13:38:15;3.72;;;2.17;;
34902;SDS011;21114;44.840;0.214;2024-01-07T13:40:41;1.13;;;1.02;;
34902;SDS011;21114;44.840;0.214;2024-01-07T13:43:07;4.50;;;1.40;;
34902;SDS011;21114;44.840;0.214;2024-01-07T13:45:33;2.67;;;2.00;;
34902;SDS011;21114;44.840;0.214;2024-01-07T13:47:59;2.03;;;1.60;;
34902;SDS011;21114;44.840;0.214;2024-01-07T13:50:25;2.05;;;1.27;;
34902;SDS011;21114;44.840;0.214;2024-01-07T13:52:51;2.00;;;1.10;;
34902;SDS011;21114;44.840;0.214;2024-01-07T13:55:17;3.08;;;1.25;;
34902;SDS011;21114;44.840;0.214;2024-01-07T13:57:44;3.28;;;0.90;;
34902;SDS011;21114;44.840;0.214;2024-01-07T14:00:10;2.45;;;0.68;;
34902;SDS011;21114;44.840;0.214;2024-01-07T14:02:43;1.10;;;1.00;;
34902;SDS011;21114;44.840;0.214;2024-01-07T14:05:10;2.67;;;1.90;;
34902;SDS011;21114;44.840;0.214;2024-01-07T14:07:37;1.67;;;1.00;;
34902;SDS011;21114;44.840;0.214;2024-01-07T14:10:03;2.08;;;1.15;;
34902;SDS011;21114;44.840;0.214;2024-01-07T14:13:20;3.60;;;1.10;;
34902;SDS011;21114;44.840;0.214;2024-01-07T14:15:47;1.25;;;0.80;;
34902;SDS011;21114;44.840;0.214;2024-01-07T14:18:13;5.75;;;1.60;;
34902;SDS011;21114;44.840;0.214;2024-01-07T14:20:42;2.83;;;1.30;;
34902;SDS011;21114;44.840;0.214;2024-01-07T14:23:08;1.77;;;1.58;;
34902;SDS011;21114;44.840;0.214;2024-01-07T14:25:34;3.22;;;1.17;;
34902;SDS011;21114;44.840;0.214;2024-01-07T14:28:01;2.25;;;1.70;;
34902;SDS011;21114;44.840;0.214;2024-01-07T14:30:28;3.13;;;1.13;;
34902;SDS011;21114;44.840;0.214;2024-01-07T14:32:55;1.40;;;1.30;;
34902;SDS011;21114;44.840;0.214;2024-01-07T14:35:21;2.30;;;1.13;;
34902;SDS011;21114;44.840;0.214;2024-01-07T14:37:50;1.85;;;1.20;;
34902;SDS011;21114;44.840;0.214;2024-01-07T14:40:17;3.00;;;1.23;;
34902;SDS011;21114;44.840;0.214;2024-01-07T14:43:32;1.73;;;0.82;;
34902;SDS011;21114;44.840;0.214;2024-01-07T14:45:58;2.60;;;1.00;;
34902;SDS011;21114;44.840;0.214;2024-01-07T14:48:24;1.38;;;0.70;;
34902;SDS011;21114;44.840;0.214;2024-01-07T14:50:50;2.40;;;0.98;;
34902;SDS011;21114;44.840;0.214;2024-01-07T14:53:16;5.13;;;1.42;;
34902;SDS011;21114;44.840;0.214;2024-01-07T14:55:42;2.97;;;1.88;;
34902;SDS011;21114;44.840;0.214;2024-01-07T14:58:08;4.13;;;1.80;;
34902;SDS011;21114;44.840;0.214;2024-01-07T15:00:34;2.55;;;1.38;;
34902;SDS011;21114;44.840;0.214;2024-01-07T15:03:01;4.03;;;1.45;;
34902;SDS011;21114;44.840;0.214;2024-01-07T15:05:27;2.47;;;2.20;;
34902;SDS011;21114;44.840;0.214;2024-01-07T15:07:53;3.35;;;1.65;;
34902;SDS011;21114;44.840;0.214;2024-01-07T15:10:19;3.45;;;1.58;;
34902;SDS011;21114;44.840;0.214;2024-01-07T15:12:45;2.47;;;1.83;;
34902;SDS011;21114;44.840;0.214;2024-01-07T15:15:13;2.92;;;1.30;;
34902;SDS011;21114;44.840;0.214;2024-01-07T15:17:39;1.45;;;1.10;;